sensor_id;sensor_type;location;lat;lon;timestamp;pressure;altitude;pressure_sealevel;temperature;humidity
8575;BME280;4325;42.520;27.448;2023-04-01T00:01:41;100378.34;;;9.02;100.00
8575;BME280;4325;42.520;27.448;2023-04-01T00:04:07;100371.81;;;9.08;100.00
8575;BME280;4325;42.520;27.448;2023-04-01T00:06:34;100373.47;;;9.19;100.00
8575;BME280;4325;42.520;27.448;2023-04-01T00:09:03;100381.09;;;9.27;100.00
8575;BME280;4325;42.520;27.448;2023-04-01T00:11:30;100377.84;;;9.36;100.00
8575;BME280;4325;42.520;27.448;2023-04-01T00:13:57;100379.75;;;9.40;100.00
8575;BME280;4325;42.520;27.448;2023-04-01T00:16:23;100373.75;;;9.43;100.00
8575;BME280;4325;42.520;27.448;2023-04-01T00:18:51;100380.88;;;9.39;100.00
8575;BME280;4325;42.520;27.448;2023-04-01T00:21:19;100378.41;;;9.38;100.00
8575;BME280;4325;42.520;27.448;2023-04-01T00:23:47;100366.91;;;9.36;100.00
8575;BME280;4325;42.520;27.448;2023-04-01T00:26:15;100367.47;;;9.38;100.00
8575;BME280;4325;42.520;27.448;2023-04-01T00:28:44;100369.38;;;9.42;100.00
8575;BME280;4325;42.520;27.448;2023-04-01T00:31:12;100361.72;;;9.49;100.00
8575;BME280;4325;42.520;27.448;2023-04-01T00:33:39;100362.84;;;9.58;100.00
8575;BME280;4325;42.520;27.448;2023-04-01T00:36:08;100365.81;;;9.62;100.00
8575;BME280;4325;42.520;27.448;2023-04-01T00:38:36;100368.56;;;9.62;100.00
8575;BME280;4325;42.520;27.448;2023-04-01T00:41:03;100371.84;;;9.59;100.00
8575;BME280;4325;42.520;27.448;2023-04-01T00:43:32;100371.28;;;9.67;100.00
8575;BME280;4325;42.520;27.448;2023-04-01T00:45:59;100369.66;;;9.71;100.00
8575;BME280;4325;42.520;27.448;2023-04-01T00:48:28;100374.56;;;9.74;100.00
8575;BME280;4325;42.520;27.448;2023-04-01T00:51:00;100378.66;;;9.76;100.00
8575;BME280;4325;42.520;27.448;2023-04-01T00:53:30;100376.75;;;9.77;100.00
8575;BME280;4325;42.520;27.448;2023-04-01T00:56:00;100365.81;;;9.82;100.00
8575;BME280;4325;42.520;27.448;2023-04-01T00:58:33;100349.94;;;9.79;100.00
8575;BME280;4325;42.520;27.448;2023-04-01T01:01:01;100342.56;;;9.79;100.00
8575;BME280;4325;42.520;27.448;2023-04-01T01:03:28;100345.31;;;9.79;100.00
8575;BME280;4325;42.520;27.448;2023-04-01T01:06:14;100357.06;;;9.80;100.00
8575;BME280;4325;42.520;27.448;2023-04-01T01:09:14;100352.69;;;9.74;100.00
8575;BME280;4325;42.520;27.448;2023-04-01T01:11:50;100350.50;;;9.76;100.00
8575;BME280;4325;42.520;27.448;2023-04-01T01:14:33;100339.59;;;9.71;100.00
8575;BME280;4325;42.520;27.448;2023-04-01T01:17:08;100339.59;;;9.66;100.00
8575;BME280;4325;42.520;27.448;2023-04-01T01:19:53;100340.16;;;9.63;100.00
8575;BME280;4325;42.520;27.448;2023-04-01T01:22:48;100331.41;;;9.61;100.00
8575;BME280;4325;42.520;27.448;2023-04-01T01:25:30;100318.56;;;9.56;100.00
8575;BME280;4325;42.520;27.448;2023-04-01T01:28:07;100306.28;;;9.49;100.00
8575;BME280;4325;42.520;27.448;2023-04-01T01:30:43;100302.19;;;9.41;100.00
8575;BME280;4325;42.520;27.448;2023-04-01T01:33:30;100300.00;;;9.33;100.00
8575;BME280;4325;42.520;27.448;2023-04-01T01:36:04;100303.53;;;9.23;100.00
8575;BME280;4325;42.520;27.448;2023-04-01T01:38:34;100310.38;;;9.21;100.00
8575;BME280;4325;42.520;27.448;2023-04-01T01:41:04;100314.22;;;9.15;100.00
8575;BME280;4325;42.520;27.448;2023-04-01T01:43:35;100315.81;;;9.11;100.00
8575;BME280;4325;42.520;27.448;2023-04-01T01:46:06;100319.38;;;9.06;100.00
8575;BME280;4325;42.520;27.448;2023-04-01T01:48:34;100321.03;;;9.02;100.00
8575;BME280;4325;42.520;27.448;2023-04-01T01:51:05;100319.91;;;8.98;100.00
8575;BME280;4325;42.520;27.448;2023-04-01T01:53:32;100321.56;;;8.99;100.00
8575;BME280;4325;42.520;27.448;2023-04-01T01:55:59;100308.97;;;8.93;100.00
8575;BME280;4325;42.520;27.448;2023-04-01T01:58:29;100305.97;;;8.85;100.00
8575;BME280;4325;42.520;27.448;2023-04-01T02:00:59;100310.34;;;8.81;100.00
8575;BME280;4325;42.520;27.448;2023-04-01T02:03:29;100319.88;;;8.73;100.00
8575;BME280;4325;42.520;27.448;2023-04-01T02:05:59;100311.69;;;8.68;100.00
8575;BME280;4325;42.520;27.448;2023-04-01T02:08:32;100304.31;;;8.69;100.00
8575;BME280;4325;42.520;27.448;2023-04-01T02:11:03;100313.03;;;8.71;100.00
8575;BME280;4325;42.520;27.448;2023-04-01T02:13:35;100302.94;;;8.66;100.00
8575;BME280;4325;42.520;27.448;2023-04-01T02:16:08;100301.56;;;8.58;100.00
8575;BME280;4325;42.520;27.448;2023-04-01T02:18:38;100292.25;;;8.54;100.00
8575;BME280;4325;42.520;27.448;2023-04-01T02:21:06;100287.06;;;8.53;100.00
8575;BME280;4325;42.520;27.448;2023-04-01T02:23:36;100301.25;;;8.50;100.00
8575;BME280;4325;42.520;27.448;2023-04-01T02:26:05;100299.03;;;8.47;100.00
8575;BME280;4325;42.520;27.448;2023-04-01T02:28:33;100293.31;;;8.43;100.00
8575;BME280;4325;42.520;27.448;2023-04-01T02:31:00;100284.28;;;8.38;100.00
8575;BME280;4325;42.520;27.448;2023-04-01T02:33:29;100293.28;;;8.33;100.00
8575;BME280;4325;42.520;27.448;2023-04-01T02:35:57;100281.56;;;8.33;100.00
8575;BME280;4325;42.520;27.448;2023-04-01T02:38:24;100276.09;;;8.33;100.00
8575;BME280;4325;42.520;27.448;2023-04-01T02:40:59;100284.56;;;8.31;100.00
8575;BME280;4325;42.520;27.448;2023-04-01T02:43:26;100282.09;;;8.30;100.00
8575;BME280;4325;42.520;27.448;2023-04-01T02:45:53;100277.72;;;8.29;100.00
8575;BME280;4325;42.520;27.448;2023-04-01T02:48:20;100270.91;;;8.26;100.00
8575;BME280;4325;42.520;27.448;2023-04-01T02:50:47;100271.19;;;8.30;100.00
8575;BME280;4325;42.520;27.448;2023-04-01T02:53:14;100267.38;;;8.31;100.00
8575;BME280;4325;42.520;27.448;2023-04-01T02:55:41;100269.03;;;8.32;100.00
8575;BME280;4325;42.520;27.448;2023-04-01T02:58:09;100272.28;;;8.34;100.00
8575;BME280;4325;42.520;27.448;2023-04-01T03:00:36;100270.66;;;8.38;100.00
8575;BME280;4325;42.520;27.448;2023-04-01T03:03:03;100270.41;;;8.39;100.00
8575;BME280;4325;42.520;27.448;2023-04-01T03:05:30;100269.06;;;8.42;100.00
8575;BME280;4325;42.520;27.448;2023-04-01T03:07:57;100272.84;;;8.41;100.00
8575;BME280;4325;42.520;27.448;2023-04-01T03:10:24;100266.88;;;8.44;100.00
8575;BME280;4325;42.520;27.448;2023-04-01T03:12:51;100274.50;;;8.42;100.00
8575;BME280;4325;42.520;27.448;2023-04-01T03:15:19;100251.53;;;8.28;100.00
8575;BME280;4325;42.520;27.448;2023-04-01T03:17:46;100278.31;;;8.41;100.00
8575;BME280;4325;42.520;27.448;2023-04-01T03:20:14;100275.31;;;8.42;100.00
8575;BME280;4325;42.520;27.448;2023-04-01T03:22:42;100264.69;;;8.41;100.00
8575;BME280;4325;42.520;27.448;2023-04-01T03:25:09;100248.03;;;8.42;100.00
8575;BME280;4325;42.520;27.448;2023-04-01T03:27:37;100246.13;;;8.43;100.00
8575;BME280;4325;42.520;27.448;2023-04-01T03:30:05;100247.75;;;8.39;100.00
8575;BME280;4325;42.520;27.448;2023-04-01T03:32:33;100264.13;;;8.39;100.00
8575;BME280;4325;42.520;27.448;2023-04-01T03:35:00;100258.16;;;8.42;100.00
8575;BME280;4325;42.520;27.448;2023-04-01T03:37:27;100258.94;;;8.42;100.00
8575;BME280;4325;42.520;27.448;2023-04-01T03:39:54;100254.31;;;8.43;100.00
8575;BME280;4325;42.520;27.448;2023-04-01T03:42:21;100255.97;;;8.44;100.00
8575;BME280;4325;42.520;27.448;2023-04-01T03:44:48;100246.97;;;8.48;100.00
8575;BME280;4325;42.520;27.448;2023-04-01T03:47:15;100244.78;;;8.50;100.00
8575;BME280;4325;42.520;27.448;2023-04-01T03:49:43;100248.34;;;8.51;100.00
8575;BME280;4325;42.520;27.448;2023-04-01T03:52:10;100243.41;;;8.53;100.00
8575;BME280;4325;42.520;27.448;2023-04-01T03:54:37;100242.59;;;8.52;100.00
8575;BME280;4325;42.520;27.448;2023-04-01T03:57:04;100240.97;;;8.51;100.00
8575;BME280;4325;42.520;27.448;2023-04-01T03:59:31;100237.97;;;8.53;100.00
8575;BME280;4325;42.520;27.448;2023-04-01T04:01:58;100236.06;;;8.53;100.00
8575;BME280;4325;42.520;27.448;2023-04-01T04:04:25;100237.16;;;8.57;100.00
8575;BME280;4325;42.520;27.448;2023-04-01T04:06:54;100237.97;;;8.63;100.00
8575;BME280;4325;42.520;27.448;2023-04-01T04:09:21;100243.47;;;8.73;100.00
8575;BME280;4325;42.520;27.448;2023-04-01T04:11:48;100241.28;;;8.80;100.00
8575;BME280;4325;42.520;27.448;2023-04-01T04:14:16;100242.91;;;8.86;100.00
8575;BME280;4325;42.520;27.448;2023-04-01T04:16:43;100240.47;;;8.95;100.00
8575;BME280;4325;42.520;27.448;2023-04-01T04:19:10;100232.53;;;9.03;100.00
8575;BME280;4325;42.520;27.448;2023-04-01T04:21:37;100235.25;;;9.13;100.00
8575;BME280;4325;42.520;27.448;2023-04-01T04:24:05;100237.44;;;9.26;100.00
8575;BME280;4325;42.520;27.448;2023-04-01T04:26:32;100233.59;;;9.38;100.00
8575;BME280;4325;42.520;27.448;2023-04-01T04:28:59;100243.13;;;9.50;100.00
8575;BME280;4325;42.520;27.448;2023-04-01T04:31:26;100241.72;;;9.68;100.00
8575;BME280;4325;42.520;27.448;2023-04-01T04:33:54;100238.94;;;9.88;100.00
8575;BME280;4325;42.520;27.448;2023-04-01T04:36:21;100231.16;;;10.10;100.00
8575;BME280;4325;42.520;27.448;2023-04-01T04:38:48;100229.16;;;10.36;100.00
8575;BME280;4325;42.520;27.448;2023-04-01T04:41:18;100232.00;;;10.65;100.00
8575;BME280;4325;42.520;27.448;2023-04-01T04:43:49;100235.59;;;10.94;100.00
8575;BME280;4325;42.520;27.448;2023-04-01T04:46:17;100234.28;;;11.20;100.00
8575;BME280;4325;42.520;27.448;2023-04-01T04:48:44;100238.47;;;11.41;100.00
8575;BME280;4325;42.520;27.448;2023-04-01T04:51:14;100237.50;;;11.56;100.00
8575;BME280;4325;42.520;27.448;2023-04-01T04:53:41;100236.25;;;11.72;100.00
8575;BME280;4325;42.520;27.448;2023-04-01T04:56:08;100237.72;;;11.88;100.00
8575;BME280;4325;42.520;27.448;2023-04-01T04:58:38;100233.91;;;12.08;100.00
8575;BME280;4325;42.520;27.448;2023-04-01T05:01:08;100232.63;;;12.24;100.00
8575;BME280;4325;42.520;27.448;2023-04-01T05:03:35;100230.31;;;12.31;100.00
8575;BME280;4325;42.520;27.448;2023-04-01T05:06:02;100230.25;;;12.36;100.00
8575;BME280;4325;42.520;27.448;2023-04-01T05:08:28;100235.13;;;12.39;100.00
8575;BME280;4325;42.520;27.448;2023-04-01T05:10:55;100224.16;;;12.39;100.00
8575;BME280;4325;42.520;27.448;2023-04-01T05:13:22;100232.69;;;12.37;100.00
8575;BME280;4325;42.520;27.448;2023-04-01T05:15:51;100225.34;;;12.33;100.00
8575;BME280;4325;42.520;27.448;2023-04-01T05:18:18;100222.69;;;12.46;100.00
8575;BME280;4325;42.520;27.448;2023-04-01T05:20:48;100209.53;;;12.62;100.00
8575;BME280;4325;42.520;27.448;2023-04-01T05:23:16;100212.66;;;12.74;100.00
8575;BME280;4325;42.520;27.448;2023-04-01T05:25:43;100209.38;;;12.91;100.00
8575;BME280;4325;42.520;27.448;2023-04-01T05:28:10;100212.25;;;12.99;100.00
8575;BME280;4325;42.520;27.448;2023-04-01T05:30:39;100213.75;;;13.10;100.00
8575;BME280;4325;42.520;27.448;2023-04-01T05:33:08;100219.28;;;13.05;100.00
8575;BME280;4325;42.520;27.448;2023-04-01T05:35:35;100209.25;;;13.14;100.00
8575;BME280;4325;42.520;27.448;2023-04-01T05:38:03;100201.97;;;13.23;100.00
8575;BME280;4325;42.520;27.448;2023-04-01T05:40:30;100192.81;;;13.42;100.00
8575;BME280;4325;42.520;27.448;2023-04-01T05:42:58;100180.63;;;13.61;100.00
8575;BME280;4325;42.520;27.448;2023-04-01T05:45:24;100185.50;;;13.78;100.00
8575;BME280;4325;42.520;27.448;2023-04-01T05:47:51;100184.00;;;13.99;100.00
8575;BME280;4325;42.520;27.448;2023-04-01T05:50:19;100181.72;;;14.15;100.00
8575;BME280;4325;42.520;27.448;2023-04-01T05:52:46;100180.06;;;14.27;100.00
8575;BME280;4325;42.520;27.448;2023-04-01T05:55:13;100182.88;;;14.49;100.00
8575;BME280;4325;42.520;27.448;2023-04-01T05:57:40;100179.91;;;14.82;100.00
8575;BME280;4325;42.520;27.448;2023-04-01T06:00:07;100186.41;;;15.39;100.00
8575;BME280;4325;42.520;27.448;2023-04-01T06:02:34;100186.00;;;15.84;100.00
8575;BME280;4325;42.520;27.448;2023-04-01T06:05:12;100178.94;;;16.26;98.02
8575;BME280;4325;42.520;27.448;2023-04-01T06:07:41;100177.22;;;16.65;94.85
8575;BME280;4325;42.520;27.448;2023-04-01T06:10:14;100179.66;;;16.83;91.71
8575;BME280;4325;42.520;27.448;2023-04-01T06:12:50;100179.50;;;16.80;90.84
8575;BME280;4325;42.520;27.448;2023-04-01T06:15:25;100175.94;;;16.62;92.29
8575;BME280;4325;42.520;27.448;2023-04-01T06:18:38;100178.03;;;16.57;93.29
8575;BME280;4325;42.520;27.448;2023-04-01T06:21:23;100172.66;;;16.77;93.27
8575;BME280;4325;42.520;27.448;2023-04-01T06:24:04;100167.31;;;16.81;90.69
8575;BME280;4325;42.520;27.448;2023-04-01T06:26:43;100175.75;;;16.84;89.55
8575;BME280;4325;42.520;27.448;2023-04-01T06:32:19;100190.25;;;16.81;87.26
8575;BME280;4325;42.520;27.448;2023-04-01T06:35:11;100174.31;;;16.78;89.28
8575;BME280;4325;42.520;27.448;2023-04-01T06:40:55;100178.03;;;16.82;89.17
8575;BME280;4325;42.520;27.448;2023-04-01T06:43:30;100172.00;;;16.97;89.07
8575;BME280;4325;42.520;27.448;2023-04-01T06:46:07;100180.91;;;17.11;87.47
8575;BME280;4325;42.520;27.448;2023-04-01T06:48:55;100181.66;;;17.38;85.03
8575;BME280;4325;42.520;27.448;2023-04-01T06:51:34;100171.00;;;17.74;83.49
8575;BME280;4325;42.520;27.448;2023-04-01T06:54:09;100165.94;;;18.05;81.53
8575;BME280;4325;42.520;27.448;2023-04-01T06:56:41;100165.19;;;18.46;78.74
8575;BME280;4325;42.520;27.448;2023-04-01T06:59:12;100170.91;;;18.82;75.73
8575;BME280;4325;42.520;27.448;2023-04-01T07:01:42;100170.94;;;19.15;72.81
8575;BME280;4325;42.520;27.448;2023-04-01T07:04:13;100175.50;;;19.32;71.71
8575;BME280;4325;42.520;27.448;2023-04-01T07:06:46;100171.91;;;19.31;73.09
8575;BME280;4325;42.520;27.448;2023-04-01T07:09:18;100165.81;;;19.38;72.65
8575;BME280;4325;42.520;27.448;2023-04-01T07:11:48;100162.69;;;19.06;74.95
8575;BME280;4325;42.520;27.448;2023-04-01T07:14:19;100168.81;;;18.79;77.20
8575;BME280;4325;42.520;27.448;2023-04-01T07:16:49;100169.31;;;18.61;79.27
8575;BME280;4325;42.520;27.448;2023-04-01T07:19:22;100166.13;;;18.50;80.63
8575;BME280;4325;42.520;27.448;2023-04-01T07:21:55;100158.63;;;18.51;80.72
8575;BME280;4325;42.520;27.448;2023-04-01T07:24:26;100164.13;;;18.92;79.16
8575;BME280;4325;42.520;27.448;2023-04-01T07:26:56;100160.13;;;19.34;76.16
8575;BME280;4325;42.520;27.448;2023-04-01T07:29:24;100160.44;;;19.90;72.11
8575;BME280;4325;42.520;27.448;2023-04-01T07:34:55;100154.91;;;21.37;63.19
8575;BME280;4325;42.520;27.448;2023-04-01T07:37:30;100153.84;;;22.04;59.14
8575;BME280;4325;42.520;27.448;2023-04-01T07:40:04;100139.28;;;22.64;56.34
8575;BME280;4325;42.520;27.448;2023-04-01T07:42:47;100126.66;;;22.16;56.08
8575;BME280;4325;42.520;27.448;2023-04-01T07:45:23;100137.47;;;24.27;51.32
8575;BME280;4325;42.520;27.448;2023-04-01T07:48:03;100116.88;;;26.51;44.35
8575;BME280;4325;42.520;27.448;2023-04-01T07:50:38;100125.16;;;29.47;37.12
8575;BME280;4325;42.520;27.448;2023-04-01T07:53:15;100124.38;;;30.39;34.82
8575;BME280;4325;42.520;27.448;2023-04-01T07:55:49;100116.53;;;29.65;34.85
8575;BME280;4325;42.520;27.448;2023-04-01T07:58:24;100110.28;;;28.63;36.39
8575;BME280;4325;42.520;27.448;2023-04-01T08:00:59;100108.81;;;27.74;37.79
8575;BME280;4325;42.520;27.448;2023-04-01T08:03:48;100118.28;;;26.89;39.18
8575;BME280;4325;42.520;27.448;2023-04-01T08:06:22;100093.56;;;25.78;41.24
8575;BME280;4325;42.520;27.448;2023-04-01T08:08:59;100114.91;;;24.76;44.44
8575;BME280;4325;42.520;27.448;2023-04-01T08:11:37;100100.59;;;25.58;43.00
8575;BME280;4325;42.520;27.448;2023-04-01T08:14:15;100104.28;;;25.25;43.24
8575;BME280;4325;42.520;27.448;2023-04-01T08:16:52;100090.22;;;26.13;41.95
8575;BME280;4325;42.520;27.448;2023-04-01T08:19:30;100084.19;;;26.97;40.68
8575;BME280;4325;42.520;27.448;2023-04-01T08:22:02;100087.59;;;26.45;41.32
8575;BME280;4325;42.520;27.448;2023-04-01T08:24:35;100068.56;;;26.96;40.50
8575;BME280;4325;42.520;27.448;2023-04-01T08:27:10;100063.75;;;27.21;39.60
8575;BME280;4325;42.520;27.448;2023-04-01T08:29:46;100077.38;;;24.77;44.41
8575;BME280;4325;42.520;27.448;2023-04-01T08:32:20;100066.56;;;22.38;51.25
8575;BME280;4325;42.520;27.448;2023-04-01T08:35:06;100062.34;;;21.59;55.61
8575;BME280;4325;42.520;27.448;2023-04-01T08:37:36;100055.00;;;20.76;61.93
8575;BME280;4325;42.520;27.448;2023-04-01T08:40:22;100042.03;;;20.96;62.05
8575;BME280;4325;42.520;27.448;2023-04-01T08:43:03;100053.59;;;21.76;57.34
8575;BME280;4325;42.520;27.448;2023-04-01T08:45:56;100034.88;;;22.46;54.02
8575;BME280;4325;42.520;27.448;2023-04-01T08:52:01;100037.09;;;24.55;46.77
8575;BME280;4325;42.520;27.448;2023-04-01T08:54:48;100029.69;;;23.32;49.14
8575;BME280;4325;42.520;27.448;2023-04-01T08:57:35;100032.25;;;23.40;49.89
8575;BME280;4325;42.520;27.448;2023-04-01T09:00:15;100022.19;;;23.13;50.12
8575;BME280;4325;42.520;27.448;2023-04-01T09:06:32;100011.03;;;21.60;57.19
8575;BME280;4325;42.520;27.448;2023-04-01T09:09:27;100001.91;;;22.13;55.06
8575;BME280;4325;42.520;27.448;2023-04-01T09:15:25;100016.41;;;23.25;49.97
8575;BME280;4325;42.520;27.448;2023-04-01T09:18:25;100010.72;;;22.73;51.39
8575;BME280;4325;42.520;27.448;2023-04-01T09:24:29;99985.47;;;22.27;53.31
8575;BME280;4325;42.520;27.448;2023-04-01T09:27:05;99982.69;;;22.08;54.35
8575;BME280;4325;42.520;27.448;2023-04-01T09:30:07;99986.88;;;22.18;54.50
8575;BME280;4325;42.520;27.448;2023-04-01T09:33:09;99980.63;;;22.24;53.64
8575;BME280;4325;42.520;27.448;2023-04-01T09:35:48;99983.19;;;25.02;46.07
8575;BME280;4325;42.520;27.448;2023-04-01T09:38:29;99982.75;;;26.09;42.33
8575;BME280;4325;42.520;27.448;2023-04-01T09:40:57;99979.03;;;26.91;41.05
8575;BME280;4325;42.520;27.448;2023-04-01T09:43:30;99980.06;;;28.24;38.06
8575;BME280;4325;42.520;27.448;2023-04-01T09:46:21;99985.06;;;27.57;39.17
8575;BME280;4325;42.520;27.448;2023-04-01T09:51:54;99950.09;;;25.69;41.76
8575;BME280;4325;42.520;27.448;2023-04-01T09:54:36;99947.34;;;25.22;43.18
8575;BME280;4325;42.520;27.448;2023-04-01T09:57:39;99952.47;;;25.13;43.57
8575;BME280;4325;42.520;27.448;2023-04-01T10:00:47;99957.38;;;27.41;38.53
8575;BME280;4325;42.520;27.448;2023-04-01T10:03:37;99941.81;;;28.37;36.50
8575;BME280;4325;42.520;27.448;2023-04-01T10:06:43;99930.56;;;28.96;35.63
8575;BME280;4325;42.520;27.448;2023-04-01T10:13:03;99939.47;;;29.76;33.30
8575;BME280;4325;42.520;27.448;2023-04-01T10:19:18;99920.56;;;30.06;33.05
8575;BME280;4325;42.520;27.448;2023-04-01T10:22:04;99910.41;;;29.82;33.57
8575;BME280;4325;42.520;27.448;2023-04-01T10:24:51;99916.13;;;28.87;34.37
8575;BME280;4325;42.520;27.448;2023-04-01T10:27:57;99906.28;;;29.09;34.95
8575;BME280;4325;42.520;27.448;2023-04-01T10:30:55;99907.72;;;29.31;34.02
8575;BME280;4325;42.520;27.448;2023-04-01T10:36:47;99895.00;;;30.74;33.20
8575;BME280;4325;42.520;27.448;2023-04-01T10:39:34;99898.78;;;35.23;28.04
8575;BME280;4325;42.520;27.448;2023-04-01T10:45:49;99882.31;;;31.75;30.42
8575;BME280;4325;42.520;27.448;2023-04-01T10:51:46;99857.31;;;27.58;36.68
8575;BME280;4325;42.520;27.448;2023-04-01T10:54:45;99856.63;;;26.69;38.54
8575;BME280;4325;42.520;27.448;2023-04-01T10:57:42;99833.31;;;26.15;40.11
8575;BME280;4325;42.520;27.448;2023-04-01T11:00:46;99833.63;;;25.96;41.04
8575;BME280;4325;42.520;27.448;2023-04-01T11:07:18;99806.75;;;24.51;43.41
8575;BME280;4325;42.520;27.448;2023-04-01T11:19:23;99800.19;;;23.00;47.64
8575;BME280;4325;42.520;27.448;2023-04-01T11:22:14;99787.88;;;22.75;48.68
8575;BME280;4325;42.520;27.448;2023-04-01T11:31:16;99775.94;;;23.04;48.70
8575;BME280;4325;42.520;27.448;2023-04-01T11:33:53;99766.13;;;23.17;48.15
8575;BME280;4325;42.520;27.448;2023-04-01T11:36:33;99761.31;;;23.14;47.81
8575;BME280;4325;42.520;27.448;2023-04-01T11:39:14;99764.56;;;23.20;47.19
8575;BME280;4325;42.520;27.448;2023-04-01T11:41:52;99764.59;;;22.41;48.85
8575;BME280;4325;42.520;27.448;2023-04-01T11:44:25;99762.63;;;22.19;50.17
8575;BME280;4325;42.520;27.448;2023-04-01T11:47:09;99771.94;;;22.26;50.66
8575;BME280;4325;42.520;27.448;2023-04-01T11:49:51;99757.69;;;22.31;51.01
8575;BME280;4325;42.520;27.448;2023-04-01T11:55:35;99758.06;;;21.65;51.80
8575;BME280;4325;42.520;27.448;2023-04-01T11:58:21;99754.34;;;21.39;52.97
8575;BME280;4325;42.520;27.448;2023-04-01T12:07:05;99750.25;;;21.33;54.67
8575;BME280;4325;42.520;27.448;2023-04-01T12:09:40;99739.78;;;21.26;54.81
8575;BME280;4325;42.520;27.448;2023-04-01T12:12:17;99738.09;;;21.22;54.96
8575;BME280;4325;42.520;27.448;2023-04-01T12:14:57;99743.06;;;21.13;55.57
8575;BME280;4325;42.520;27.448;2023-04-01T12:17:36;99740.03;;;21.02;57.02
8575;BME280;4325;42.520;27.448;2023-04-01T12:20:21;99751.88;;;21.15;57.07
8575;BME280;4325;42.520;27.448;2023-04-01T12:22:59;99749.78;;;21.50;56.23
8575;BME280;4325;42.520;27.448;2023-04-01T12:25:45;99738.44;;;21.81;54.79
8575;BME280;4325;42.520;27.448;2023-04-01T12:28:24;99754.63;;;22.17;53.84
8575;BME280;4325;42.520;27.448;2023-04-01T12:31:00;99751.25;;;22.05;54.33
8575;BME280;4325;42.520;27.448;2023-04-01T12:33:50;99739.72;;;21.64;54.88
8575;BME280;4325;42.520;27.448;2023-04-01T12:36:34;99749.78;;;21.50;55.58
8575;BME280;4325;42.520;27.448;2023-04-01T12:39:27;99735.88;;;21.50;55.77
8575;BME280;4325;42.520;27.448;2023-04-01T12:42:07;99732.50;;;21.41;55.64
8575;BME280;4325;42.520;27.448;2023-04-01T12:44:54;99718.44;;;21.34;57.34
8575;BME280;4325;42.520;27.448;2023-04-01T12:47:48;99716.25;;;21.24;57.51
8575;BME280;4325;42.520;27.448;2023-04-01T12:50:53;99721.06;;;21.08;58.20
8575;BME280;4325;42.520;27.448;2023-04-01T12:54:02;99708.63;;;21.01;58.38
8575;BME280;4325;42.520;27.448;2023-04-01T12:56:39;99696.16;;;20.95;57.81
8575;BME280;4325;42.520;27.448;2023-04-01T12:59:25;99691.72;;;21.52;55.96
8575;BME280;4325;42.520;27.448;2023-04-01T13:02:01;99692.66;;;22.27;53.21
8575;BME280;4325;42.520;27.448;2023-04-01T13:04:48;99690.28;;;23.12;49.81
8575;BME280;4325;42.520;27.448;2023-04-01T13:07:58;99686.59;;;23.37;48.19
8575;BME280;4325;42.520;27.448;2023-04-01T13:10:51;99691.28;;;23.30;48.12
8575;BME280;4325;42.520;27.448;2023-04-01T13:13:41;99683.63;;;22.90;48.80
8575;BME280;4325;42.520;27.448;2023-04-01T13:16:13;99683.75;;;22.18;51.07
8575;BME280;4325;42.520;27.448;2023-04-01T13:18:54;99682.59;;;21.74;53.41
8575;BME280;4325;42.520;27.448;2023-04-01T13:21:30;99683.38;;;21.52;54.54
8575;BME280;4325;42.520;27.448;2023-04-01T13:24:06;99681.41;;;21.52;55.31
8575;BME280;4325;42.520;27.448;2023-04-01T13:26:42;99675.06;;;21.33;56.59
8575;BME280;4325;42.520;27.448;2023-04-01T13:29:19;99682.63;;;21.13;58.32
8575;BME280;4325;42.520;27.448;2023-04-01T13:32:07;99672.72;;;20.77;61.04
8575;BME280;4325;42.520;27.448;2023-04-01T13:34:51;99673.28;;;20.48;61.32
8575;BME280;4325;42.520;27.448;2023-04-01T13:37:30;99680.94;;;20.20;62.26
8575;BME280;4325;42.520;27.448;2023-04-01T13:40:23;99674.84;;;19.99;63.14
8575;BME280;4325;42.520;27.448;2023-04-01T13:42:55;99669.28;;;19.99;63.90
8575;BME280;4325;42.520;27.448;2023-04-01T13:45:26;99658.00;;;19.92;64.87
8575;BME280;4325;42.520;27.448;2023-04-01T13:48:25;99644.56;;;19.94;65.34
8575;BME280;4325;42.520;27.448;2023-04-01T13:51:18;99648.41;;;20.05;65.98
8575;BME280;4325;42.520;27.448;2023-04-01T13:54:31;99654.94;;;20.28;65.61
8575;BME280;4325;42.520;27.448;2023-04-01T13:57:17;99652.25;;;20.31;66.03
8575;BME280;4325;42.520;27.448;2023-04-01T13:59:59;99643.00;;;20.62;63.19
8575;BME280;4325;42.520;27.448;2023-04-01T14:02:47;99651.47;;;20.88;61.75
8575;BME280;4325;42.520;27.448;2023-04-01T14:05:36;99635.59;;;20.70;62.44
8575;BME280;4325;42.520;27.448;2023-04-01T14:08:17;99637.94;;;20.49;63.08
8575;BME280;4325;42.520;27.448;2023-04-01T14:10:54;99641.03;;;20.63;62.06
8575;BME280;4325;42.520;27.448;2023-04-01T14:13:32;99635.44;;;21.20;59.37
8575;BME280;4325;42.520;27.448;2023-04-01T14:16:42;99625.56;;;21.91;55.08
8575;BME280;4325;42.520;27.448;2023-04-01T14:19:23;99618.06;;;22.77;51.05
8575;BME280;4325;42.520;27.448;2023-04-01T14:21:58;99614.28;;;23.69;47.75
8575;BME280;4325;42.520;27.448;2023-04-01T14:24:50;99609.56;;;23.80;47.02
8575;BME280;4325;42.520;27.448;2023-04-01T14:27:31;99598.66;;;23.64;46.85
8575;BME280;4325;42.520;27.448;2023-04-01T14:30:15;99592.84;;;23.03;47.40
8575;BME280;4325;42.520;27.448;2023-04-01T14:32:51;99595.06;;;22.27;49.77
8575;BME280;4325;42.520;27.448;2023-04-01T14:35:35;99585.28;;;21.62;51.80
8575;BME280;4325;42.520;27.448;2023-04-01T14:38:21;99582.22;;;20.83;55.15
8575;BME280;4325;42.520;27.448;2023-04-01T14:41:02;99575.66;;;20.34;57.33
8575;BME280;4325;42.520;27.448;2023-04-01T14:43:47;99553.88;;;20.20;58.90
8575;BME280;4325;42.520;27.448;2023-04-01T14:47:02;99555.25;;;20.11;60.54
8575;BME280;4325;42.520;27.448;2023-04-01T14:49:35;99540.47;;;19.88;60.38
8575;BME280;4325;42.520;27.448;2023-04-01T14:52:11;99532.41;;;19.83;60.42
8575;BME280;4325;42.520;27.448;2023-04-01T14:54:41;99541.78;;;19.94;59.93
8575;BME280;4325;42.520;27.448;2023-04-01T14:57:11;99532.56;;;20.24;58.80
8575;BME280;4325;42.520;27.448;2023-04-01T14:59:40;99532.44;;;20.78;55.47
8575;BME280;4325;42.520;27.448;2023-04-01T15:02:28;99529.78;;;21.76;50.45